Time;durP1;ratioP1;P1;durP2;ratioP2;P2;SDS_P1;SDS_P2;PMS_P1;PMS_P2;Temp;Humidity;BMP_temperature;BMP_pressure;BME280_temperature;BME280_humidity;BME280_pressure;Samples;Min_cycle;Max_cycle;Signal;HPM_P1;HPM_P2
2022/12/05 00:01:11;;;;;;;;;;;;;;;9.38;nan;102077.44;5047603;28;19926;-35
2022/12/05 00:03:37;;;;;;;;;;;;;;;9.37;nan;102073.94;5053642;28;19948;-35
2022/12/05 00:06:02;;;;;;;;;;;;;;;9.38;nan;102080.94;5055693;28;20376;-35
2022/12/05 00:08:28;;;;;;;;;;;;;;;9.36;nan;102077.66;5053697;28;19921;-35
2022/12/05 00:10:53;;;;;;;;;;;;;;;9.36;nan;102076.84;5055713;28;20354;-34
2022/12/05 00:13:18;;;;;;;;;;;;;;;9.34;nan;102074.38;5054958;28;19924;-38
2022/12/05 00:15:44;;;;;;;;;;;;;;;9.39;nan;102076.41;5054228;28;19916;-35
2022/12/05 00:18:09;;;;;;;;;;;;;;;9.37;nan;102076.63;5053902;28;20480;-35
2022/12/05 00:20:34;;;;;;;;;;;;;;;9.40;nan;102075.38;5054385;28;20044;-37
2022/12/05 00:23:00;;;;;;;;;;;;;;;9.43;nan;102071.47;5054746;28;19917;-35
2022/12/05 00:25:26;;;;;;;;;;;;;;;9.44;nan;102073.94;5054682;28;19923;-35
2022/12/05 00:27:51;;;;;;;;;;;;;;;9.38;nan;102070.25;5053905;28;20340;-37
2022/12/05 00:30:16;;;;;;;;;;;;;;;9.39;nan;102073.75;5054461;28;20043;-35
2022/12/05 00:32:42;;;;;;;;;;;;;;;9.39;nan;102074.56;5054045;28;20372;-35
2022/12/05 00:35:07;;;;;;;;;;;;;;;9.34;nan;102061.00;5055284;28;19922;-35
2022/12/05 00:37:32;;;;;;;;;;;;;;;9.37;nan;102062.44;5053263;28;19939;-35
2022/12/05 00:39:58;;;;;;;;;;;;;;;9.42;nan;102059.13;5054135;28;20407;-35
2022/12/05 00:42:23;;;;;;;;;;;;;;;9.43;nan;102060.78;5054097;28;19967;-35
2022/12/05 00:44:49;;;;;;;;;;;;;;;9.39;nan;102058.53;5054233;28;19916;-35
2022/12/05 00:47:15;;;;;;;;;;;;;;;9.44;nan;102051.72;5054501;28;19963;-34
2022/12/05 00:49:40;;;;;;;;;;;;;;;9.46;nan;102055.81;5054069;28;19928;-35
2022/12/05 00:52:05;;;;;;;;;;;;;;;9.47;nan;102062.00;5054128;28;19923;-35
2022/12/05 00:54:30;;;;;;;;;;;;;;;9.49;nan;102060.75;5055237;28;19923;-37
2022/12/05 00:56:56;;;;;;;;;;;;;;;9.50;nan;102059.72;5053932;28;20023;-35
2022/12/05 00:59:21;;;;;;;;;;;;;;;9.53;nan;102062.00;5056746;28;20295;-34
2022/12/05 01:01:47;;;;;;;;;;;;;;;9.49;nan;102057.25;5054526;28;19916;-35
2022/12/05 01:04:14;;;;;;;;;;;;;;;9.49;nan;102057.25;5054896;28;19927;-36
2022/12/05 01:06:40;;;;;;;;;;;;;;;9.49;nan;102043.88;5053438;28;19925;-36
2022/12/05 01:09:06;;;;;;;;;;;;;;;9.38;nan;102040.81;5053745;28;20071;-35
2022/12/05 01:11:31;;;;;;;;;;;;;;;9.39;nan;102049.66;5054018;28;20408;-35
2022/12/05 01:13:56;;;;;;;;;;;;;;;9.36;nan;102042.88;5051919;28;20435;-35
2022/12/05 01:16:27;;;;;;;;;;;;;;;9.42;nan;102043.06;5050695;28;19917;-35
2022/12/05 01:18:52;;;;;;;;;;;;;;;9.42;nan;102037.72;5050144;28;19929;-35
2022/12/05 01:21:18;;;;;;;;;;;;;;;9.38;nan;102045.34;5051035;28;20380;-35
2022/12/05 01:23:44;;;;;;;;;;;;;;;9.43;nan;102048.22;5050728;28;19971;-35
2022/12/05 01:26:12;;;;;;;;;;;;;;;9.42;nan;102038.53;5050558;28;19928;-35
2022/12/05 01:28:38;;;;;;;;;;;;;;;9.35;nan;102043.09;5049608;28;20183;-35
2022/12/05 01:31:05;;;;;;;;;;;;;;;9.39;nan;102033.63;5051869;28;20319;-35
2022/12/05 01:33:31;;;;;;;;;;;;;;;9.44;nan;102036.47;5050468;28;19999;-37
2022/12/05 01:35:56;;;;;;;;;;;;;;;9.46;nan;102031.75;5050742;28;19944;-35
2022/12/05 01:38:21;;;;;;;;;;;;;;;9.50;nan;102026.78;5050311;28;20079;-36
2022/12/05 01:40:46;;;;;;;;;;;;;;;9.50;nan;102030.28;5050234;28;19916;-36
2022/12/05 01:43:16;;;;;;;;;;;;;;;9.50;nan;102026.78;5050154;28;19971;-35
2022/12/05 01:45:42;;;;;;;;;;;;;;;9.49;nan;102030.50;5050357;28;19921;-36
2022/12/05 01:48:32;;;;;;;;;;;;;;;9.47;nan;102040.59;5049743;28;19917;-35
2022/12/05 01:50:58;;;;;;;;;;;;;;;9.47;nan;102043.25;5050151;28;20299;-35
2022/12/05 01:53:24;;;;;;;;;;;;;;;9.32;nan;102044.31;5050016;28;20368;-35
2022/12/05 01:55:50;;;;;;;;;;;;;;;9.32;nan;102046.97;5050417;28;19916;-37
2022/12/05 01:58:16;;;;;;;;;;;;;;;9.36;nan;102053.59;5049990;28;19917;-35
2022/12/05 02:00:41;;;;;;;;;;;;;;;9.33;nan;102051.31;5049851;28;19925;-37
2022/12/05 02:03:09;;;;;;;;;;;;;;;9.37;nan;102041.84;5050708;28;19917;-35
2022/12/05 02:05:36;;;;;;;;;;;;;;;9.44;nan;102055.22;5049571;28;19924;-36
2022/12/05 02:08:05;;;;;;;;;;;;;;;9.45;nan;102054.19;5050234;28;20400;-35
2022/12/05 02:10:34;;;;;;;;;;;;;;;9.44;nan;102057.06;5049810;28;20253;-38
2022/12/05 02:13:17;;;;;;;;;;;;;;;9.42;nan;102048.44;5049753;28;19939;-35
2022/12/05 02:15:49;;;;;;;;;;;;;;;9.42;nan;102035.06;5049782;28;19927;-35
2022/12/05 02:18:24;;;;;;;;;;;;;;;9.45;nan;102042.66;5048926;28;19924;-36
2022/12/05 02:21:07;;;;;;;;;;;;;;;9.47;nan;102046.75;5049997;28;20411;-36
2022/12/05 02:23:51;;;;;;;;;;;;;;;9.42;nan;102043.06;5050474;28;19948;-35
2022/12/05 02:26:46;;;;;;;;;;;;;;;9.38;nan;102043.50;5050164;28;20011;-35
2022/12/05 02:29:31;;;;;;;;;;;;;;;9.38;nan;102040.81;5040411;28;19974;-34
2022/12/05 02:32:12;;;;;;;;;;;;;;;9.42;nan;102035.06;5033546;28;19924;-35
2022/12/05 02:34:46;;;;;;;;;;;;;;;9.45;nan;102034.63;5049715;28;19991;-36
2022/12/05 02:37:16;;;;;;;;;;;;;;;9.44;nan;102036.47;5049163;28;19920;-35
2022/12/05 02:39:42;;;;;;;;;;;;;;;9.43;nan;102034.03;5048920;28;20019;-36
2022/12/05 02:42:28;;;;;;;;;;;;;;;9.40;nan;102035.25;5049072;28;20015;-35
2022/12/05 02:45:00;;;;;;;;;;;;;;;9.36;nan;102039.38;5049400;28;20437;-34
2022/12/05 02:47:27;;;;;;;;;;;;;;;9.32;nan;102035.47;5050954;28;20289;-36
2022/12/05 02:49:54;;;;;;;;;;;;;;;9.26;nan;102037.13;5049122;28;19920;-35
2022/12/05 02:52:21;;;;;;;;;;;;;;;9.26;nan;102038.97;5051795;28;19920;-36
2022/12/05 02:54:48;;;;;;;;;;;;;;;9.29;nan;102031.34;5048819;28;19925;-35
2022/12/05 02:57:14;;;;;;;;;;;;;;;9.32;nan;102036.28;5047929;28;19928;-36
2022/12/05 02:59:39;;;;;;;;;;;;;;;9.36;nan;102036.72;5048685;28;19928;-36
2022/12/05 03:02:07;;;;;;;;;;;;;;;9.37;nan;102031.16;5048736;28;19917;-35
2022/12/05 03:04:32;;;;;;;;;;;;;;;9.37;nan;102031.16;5049064;28;19916;-36
2022/12/05 03:07:05;;;;;;;;;;;;;;;9.36;nan;102026.84;5048427;28;19950;-34
2022/12/05 03:09:38;;;;;;;;;;;;;;;9.41;nan;102026.22;5048131;28;19916;-36
2022/12/05 03:12:12;;;;;;;;;;;;;;;9.45;nan;102026.59;5049121;28;19917;-36
2022/12/05 03:14:47;;;;;;;;;;;;;;;9.45;nan;102026.59;5048155;28;19917;-35
2022/12/05 03:17:17;;;;;;;;;;;;;;;9.42;nan;102021.69;5048487;28;19993;-35
2022/12/05 03:19:52;;;;;;;;;;;;;;;9.43;nan;102026.81;5048257;28;19925;-36
2022/12/05 03:22:40;;;;;;;;;;;;;;;9.44;nan;102031.13;5048358;28;20447;-35
2022/12/05 03:25:06;;;;;;;;;;;;;;;9.44;nan;102027.63;5036980;28;19970;-35
2022/12/05 03:27:35;;;;;;;;;;;;;;;9.37;nan;102024.97;5050859;28;20015;-37
2022/12/05 03:30:06;;;;;;;;;;;;;;;9.39;nan;102022.91;5048470;28;19916;-36
2022/12/05 03:32:31;;;;;;;;;;;;;;;9.45;nan;102021.25;5049540;28;19923;-37
2022/12/05 03:35:05;;;;;;;;;;;;;;;9.50;nan;102026.78;5048148;28;19924;-35
2022/12/05 03:37:30;;;;;;;;;;;;;;;9.49;nan;102027.81;5047095;28;19995;-35
2022/12/05 03:40:05;;;;;;;;;;;;;;;9.51;nan;102028.44;5048486;28;20372;-35
2022/12/05 03:42:33;;;;;;;;;;;;;;;9.55;nan;102025.16;5047803;28;20452;-35
2022/12/05 03:45:04;;;;;;;;;;;;;;;9.52;nan;102022.06;5047844;28;19920;-35
2022/12/05 03:47:38;;;;;;;;;;;;;;;9.49;nan;102027.81;5046546;28;20507;-37
2022/12/05 03:50:11;;;;;;;;;;;;;;;9.43;nan;102023.31;5048025;28;19920;-38
2022/12/05 03:52:48;;;;;;;;;;;;;;;9.39;nan;102018.38;5046629;28;19917;-37
2022/12/05 03:55:15;;;;;;;;;;;;;;;9.37;nan;102020.47;5048248;28;19939;-35
2022/12/05 03:57:58;;;;;;;;;;;;;;;9.39;nan;102021.06;5045946;28;19971;-35
2022/12/05 04:00:25;;;;;;;;;;;;;;;9.44;nan;102019.59;5050827;28;19924;-37
2022/12/05 04:02:50;;;;;;;;;;;;;;;9.50;nan;102016.09;5055395;28;20007;-37
2022/12/05 04:05:15;;;;;;;;;;;;;;;9.54;nan;102020.00;5053734;28;20480;-35
2022/12/05 04:07:44;;;;;;;;;;;;;;;9.54;nan;102015.47;5046850;28;20386;-37
2022/12/05 04:10:14;;;;;;;;;;;;;;;9.55;nan;102010.94;5047843;28;19921;-36
2022/12/05 04:12:40;;;;;;;;;;;;;;;9.53;nan;102010.34;5048007;28;20392;-35
2022/12/05 04:15:09;;;;;;;;;;;;;;;9.54;nan;102009.31;5047495;28;19924;-34
2022/12/05 04:17:50;;;;;;;;;;;;;;;9.51;nan;102007.03;5047520;28;19921;-38
2022/12/05 04:23:01;;;;;;;;;;;;;;;9.48;nan;102012.81;5049071;28;19924;-35
2022/12/05 04:25:33;;;;;;;;;;;;;;;9.45;nan;102005.19;5050165;28;19917;-35
2022/12/05 04:27:58;;;;;;;;;;;;;;;9.43;nan;102001.91;5047334;28;19965;-37
2022/12/05 04:30:25;;;;;;;;;;;;;;;9.38;nan;102000.69;5048166;28;19920;-35
2022/12/05 04:33:05;;;;;;;;;;;;;;;9.41;nan;102001.31;5073025;22;19936;-31
2022/12/05 04:35:34;;;;;;;;;;;;;;;9.38;nan;101992.69;5051026;28;19987;-31
2022/12/05 04:38:02;;;;;;;;;;;;;;;9.26;nan;102001.53;5058859;28;19944;-31
2022/12/05 04:40:39;;;;;;;;;;;;;;;9.33;nan;102002.34;5059605;28;19920;-31
2022/12/05 04:43:05;;;;;;;;;;;;;;;9.33;nan;102005.00;5058009;28;19981;-31
2022/12/05 04:45:31;;;;;;;;;;;;;;;9.32;nan;102006.03;5059570;28;19928;-31
2022/12/05 04:47:59;;;;;;;;;;;;;;;9.37;nan;102004.41;5060536;28;19965;-31
2022/12/05 04:50:29;;;;;;;;;;;;;;;9.42;nan;102000.28;5039907;28;19932;-31
2022/12/05 04:52:56;;;;;;;;;;;;;;;9.45;nan;102000.69;5064033;28;20291;-31
2022/12/05 04:55:24;;;;;;;;;;;;;;;9.46;nan;102002.31;5063017;28;19924;-31
2022/12/05 04:57:50;;;;;;;;;;;;;;;9.48;nan;102000.25;5063099;28;19917;-31
2022/12/05 05:00:15;;;;;;;;;;;;;;;9.52;nan;101996.16;5059731;28;19974;-31
2022/12/05 05:02:46;;;;;;;;;;;;;;;9.57;nan;101995.50;5061461;28;19927;-31
2022/12/05 05:05:15;;;;;;;;;;;;;;;9.56;nan;102001.88;5061579;28;20020;-31
2022/12/05 05:07:48;;;;;;;;;;;;;;;9.57;nan;102000.84;5063135;28;20718;-31
2022/12/05 05:10:15;;;;;;;;;;;;;;;9.61;nan;101999.41;5064605;28;19926;-31
2022/12/05 05:12:40;;;;;;;;;;;;;;;9.64;nan;102002.47;5063660;28;19971;-31
2022/12/05 05:15:06;;;;;;;;;;;;;;;9.66;nan;101999.56;5063492;28;19948;-31
2022/12/05 05:17:31;;;;;;;;;;;;;;;9.65;nan;101995.25;5061082;28;19924;-31
2022/12/05 05:20:22;;;;;;;;;;;;;;;9.62;nan;101999.19;5063405;28;20010;-31
2022/12/05 05:22:42;;;;;;;;;;;;;;;9.61;nan;102002.06;5063152;28;20370;-31
2022/12/05 05:25:07;;;;;;;;;;;;;;;9.64;nan;101996.28;5061517;28;20112;-31
2022/12/05 05:27:32;;;;;;;;;;;;;;;9.65;nan;101995.25;5061979;28;20003;-31
2022/12/05 05:29:57;;;;;;;;;;;;;;;9.60;nan;101995.91;5062119;28;19916;-31
2022/12/05 05:32:23;;;;;;;;;;;;;;;9.57;nan;101998.19;5061870;28;19920;-32
2022/12/05 05:34:48;;;;;;;;;;;;;;;9.54;nan;102001.28;5062368;28;20337;-31
2022/12/05 05:37:13;;;;;;;;;;;;;;;9.54;nan;102003.97;5060855;28;19978;-32
2022/12/05 05:39:39;;;;;;;;;;;;;;;9.43;nan;102002.75;5061401;28;20387;-31
2022/12/05 05:42:04;;;;;;;;;;;;;;;9.46;nan;102006.84;5061599;28;19946;-31
2022/12/05 05:44:29;;;;;;;;;;;;;;;9.47;nan;102001.28;5062066;28;19993;-31
2022/12/05 05:46:55;;;;;;;;;;;;;;;9.43;nan;102004.59;5062728;28;20405;-31
2022/12/05 05:49:20;;;;;;;;;;;;;;;9.48;nan;102002.91;5061558;28;19917;-31
2022/12/05 05:51:45;;;;;;;;;;;;;;;9.52;nan;102000.69;5063265;28;20348;-31
2022/12/05 05:54:11;;;;;;;;;;;;;;;9.54;nan;102009.31;5059839;28;20387;-31
2022/12/05 05:56:36;;;;;;;;;;;;;;;9.56;nan;101996.53;5061533;28;19920;-31
2022/12/05 05:59:02;;;;;;;;;;;;;;;9.60;nan;102000.44;5060127;28;19928;-31
2022/12/05 06:01:28;;;;;;;;;;;;;;;9.62;nan;102001.03;5043368;28;19920;-31
2022/12/05 06:03:53;;;;;;;;;;;;;;;9.63;nan;102002.69;5061221;28;19921;-31
2022/12/05 06:06:19;;;;;;;;;;;;;;;9.62;nan;102001.03;5061393;28;19917;-31
2022/12/05 06:08:45;;;;;;;;;;;;;;;9.60;nan;101998.56;5062256;28;19923;-31
2022/12/05 06:11:12;;;;;;;;;;;;;;;9.60;nan;102003.09;5061677;28;20407;-31
2022/12/05 06:13:37;;;;;;;;;;;;;;;9.61;nan;102002.88;5060971;28;19920;-31
2022/12/05 06:16:07;;;;;;;;;;;;;;;9.64;nan;102009.66;5060289;28;19916;-31
2022/12/05 06:18:32;;;;;;;;;;;;;;;9.61;nan;102004.75;5060435;28;19917;-31
2022/12/05 06:20:57;;;;;;;;;;;;;;;9.62;nan;102011.75;5063577;28;19916;-31
2022/12/05 06:23:23;;;;;;;;;;;;;;;9.61;nan;102010.91;5059911;28;19931;-31
2022/12/05 06:25:49;;;;;;;;;;;;;;;9.62;nan;102012.56;5061529;28;19924;-31
2022/12/05 06:28:15;;;;;;;;;;;;;;;9.66;nan;102012.94;5061040;28;19917;-31
2022/12/05 06:30:41;;;;;;;;;;;;;;;9.69;nan;102009.84;5062351;28;20011;-31
2022/12/05 06:33:06;;;;;;;;;;;;;;;9.72;nan;102012.13;5059750;28;20018;-31
2022/12/05 06:35:31;;;;;;;;;;;;;;;9.72;nan;102013.97;5060941;28;19917;-31
2022/12/05 06:37:56;;;;;;;;;;;;;;;9.72;nan;102019.34;5061148;28;20272;-31
2022/12/05 06:40:22;;;;;;;;;;;;;;;9.69;nan;102016.06;5059951;28;19920;-31
2022/12/05 06:42:47;;;;;;;;;;;;;;;9.73;nan;102019.13;5060268;28;19916;-31
2022/12/05 06:45:13;;;;;;;;;;;;;;;9.76;nan;102016.03;5060811;28;19982;-31
2022/12/05 06:47:38;;;;;;;;;;;;;;;9.77;nan;102023.00;5061669;28;19939;-31
2022/12/05 06:50:04;;;;;;;;;;;;;;;9.73;nan;102024.47;5059699;28;20429;-31
2022/12/05 06:52:29;;;;;;;;;;;;;;;9.73;nan;102031.69;5059660;28;19928;-31
2022/12/05 06:54:54;;;;;;;;;;;;;;;9.73;nan;102023.66;5061746;28;19970;-31
2022/12/05 06:57:20;;;;;;;;;;;;;;;9.75;nan;102019.72;5059998;28;20008;-31
2022/12/05 06:59:45;;;;;;;;;;;;;;;9.78;nan;102031.88;5056618;28;20116;-31
2022/12/05 07:02:11;;;;;;;;;;;;;;;9.78;nan;102031.88;5057601;28;19925;-31
2022/12/05 07:04:37;;;;;;;;;;;;;;;9.79;nan;102038.84;5059099;28;20031;-31
2022/12/05 07:07:02;;;;;;;;;;;;;;;9.74;nan;102036.81;5060762;28;20375;-31
2022/12/05 07:09:47;;;;;;;;;;;;;;;9.76;nan;102034.75;5058514;28;19927;-31
2022/12/05 07:12:17;;;;;;;;;;;;;;;9.76;nan;102039.28;5059417;28;19920;-31
2022/12/05 07:14:42;;;;;;;;;;;;;;;9.76;nan;102041.97;5060922;28;19921;-31
2022/12/05 07:17:08;;;;;;;;;;;;;;;9.78;nan;102042.56;5060262;28;19938;-31
2022/12/05 07:19:34;;;;;;;;;;;;;;;9.77;nan;102047.09;5059960;28;19924;-31
2022/12/05 07:21:59;;;;;;;;;;;;;;;9.76;nan;102045.47;5059521;28;19920;-31
2022/12/05 07:24:24;;;;;;;;;;;;;;;9.77;nan;102043.59;5044552;28;20029;-31
2022/12/05 07:26:50;;;;;;;;;;;;;;;9.75;nan;102043.81;5060655;28;20334;-31
2022/12/05 07:29:15;;;;;;;;;;;;;;;9.73;nan;102045.06;5058394;28;19917;-31
2022/12/05 07:31:40;;;;;;;;;;;;;;;9.74;nan;102046.72;5058903;28;19935;-31
2022/12/05 07:34:06;;;;;;;;;;;;;;;9.75;nan;102043.81;5058757;28;19925;-31
2022/12/05 07:36:31;;;;;;;;;;;;;;;9.74;nan;102044.84;5061212;28;19920;-31
2022/12/05 07:38:57;;;;;;;;;;;;;;;9.68;nan;102040.31;5058982;28;19964;-31
2022/12/05 07:41:24;;;;;;;;;;;;;;;9.67;nan;102044.03;5059357;28;19921;-31
2022/12/05 07:43:49;;;;;;;;;;;;;;;9.70;nan;102043.63;5058471;28;19920;-31
2022/12/05 07:46:16;;;;;;;;;;;;;;;9.73;nan;102045.88;5057931;28;19921;-31
2022/12/05 07:48:41;;;;;;;;;;;;;;;9.75;nan;102043.81;5058139;28;19939;-31
2022/12/05 07:51:07;;;;;;;;;;;;;;;9.78;nan;102040.72;5058643;28;20391;-31
2022/12/05 07:53:33;;;;;;;;;;;;;;;9.80;nan;102041.31;5059822;28;19923;-31
2022/12/05 07:55:59;;;;;;;;;;;;;;;9.84;nan;102041.72;5061591;28;19928;-31
2022/12/05 07:58:25;;;;;;;;;;;;;;;9.82;nan;102038.44;5057202;28;20456;-31
2022/12/05 08:00:50;;;;;;;;;;;;;;;9.81;nan;102045.63;5061485;28;19924;-31
2022/12/05 08:03:15;;;;;;;;;;;;;;;9.78;nan;102042.56;5059713;28;20525;-31
2022/12/05 08:05:41;;;;;;;;;;;;;;;9.79;nan;102039.69;5061197;28;20368;-31
2022/12/05 08:08:06;;;;;;;;;;;;;;;9.81;nan;102039.47;5061625;28;20298;-31
2022/12/05 08:10:32;;;;;;;;;;;;;;;9.85;nan;102036.16;5059785;28;20414;-31
2022/12/05 08:12:58;;;;;;;;;;;;;;;9.88;nan;102030.41;5060730;28;19978;-31
2022/12/05 08:15:23;;;;;;;;;;;;;;;9.89;nan;102040.06;5059392;28;20402;-31
2022/12/05 08:17:48;;;;;;;;;;;;;;;9.90;nan;102041.72;5059766;28;19974;-31
2022/12/05 08:20:14;;;;;;;;;;;;;;;9.87;nan;102041.28;5060393;28;20327;-31
2022/12/05 08:22:39;;;;;;;;;;;;;;;9.87;nan;102039.44;5061299;28;19962;-31
2022/12/05 08:25:05;;;;;;;;;;;;;;;9.89;nan;102040.06;5064966;28;19921;-31
2022/12/05 08:27:30;;;;;;;;;;;;;;;9.91;nan;102043.34;5063820;28;20012;-31
2022/12/05 08:29:55;;;;;;;;;;;;;;;9.91;nan;102040.69;5064221;28;20165;-31
2022/12/05 08:32:21;;;;;;;;;;;;;;;9.93;nan;102043.13;5064476;28;19923;-31
2022/12/05 08:34:46;;;;;;;;;;;;;;;9.93;nan;102035.09;5063864;28;19917;-31
2022/12/05 08:37:11;;;;;;;;;;;;;;;9.92;nan;102036.97;5064102;28;19925;-31
2022/12/05 08:39:37;;;;;;;;;;;;;;;9.91;nan;102024.63;5063314;28;20372;-31
2022/12/05 08:42:02;;;;;;;;;;;;;;;9.87;nan;102036.75;5065316;28;20004;-31
2022/12/05 08:44:27;;;;;;;;;;;;;;;9.87;nan;102036.75;5064331;28;19967;-31
2022/12/05 08:46:53;;;;;;;;;;;;;;;9.89;nan;102037.41;5063139;28;19935;-31
2022/12/05 08:49:18;;;;;;;;;;;;;;;9.92;nan;102044.19;5063197;28;20272;-31
2022/12/05 08:51:43;;;;;;;;;;;;;;;9.93;nan;102049.31;5063928;28;20418;-31
2022/12/05 08:54:09;;;;;;;;;;;;;;;9.97;nan;102049.72;5062700;28;19920;-31
2022/12/05 08:56:35;;;;;;;;;;;;;;;9.96;nan;102048.88;5064192;28;19920;-31
2022/12/05 08:59:01;;;;;;;;;;;;;;;9.97;nan;102052.38;5064840;28;19924;-31
2022/12/05 09:01:30;;;;;;;;;;;;;;;9.91;nan;102053.25;5062939;28;20015;-31
2022/12/05 09:03:55;;;;;;;;;;;;;;;9.90;nan;102048.91;5064963;28;20339;-31
2022/12/05 09:06:22;;;;;;;;;;;;;;;9.89;nan;102042.75;5063118;28;19982;-31
2022/12/05 09:08:48;;;;;;;;;;;;;;;9.92;nan;102046.84;5051472;28;19920;-31
2022/12/05 09:11:24;;;;;;;;;;;;;;;9.89;nan;102050.78;5062184;28;19974;-31
2022/12/05 09:13:50;;;;;;;;;;;;;;;9.87;nan;102044.78;5063171;28;19931;-31
2022/12/05 09:16:16;;;;;;;;;;;;;;;9.88;nan;102043.78;5062528;28;19916;-31
2022/12/05 09:18:42;;;;;;;;;;;;;;;9.88;nan;102043.78;5063648;28;20415;-31
2022/12/05 09:21:12;;;;;;;;;;;;;;;9.88;nan;102043.78;5064581;28;19922;-31
2022/12/05 09:23:37;;;;;;;;;;;;;;;9.89;nan;102042.75;5062607;28;19926;-31
2022/12/05 09:26:04;;;;;;;;;;;;;;;9.89;nan;102045.44;5064110;28;19916;-31
2022/12/05 09:28:29;;;;;;;;;;;;;;;9.89;nan;102040.06;5061474;28;19920;-31
2022/12/05 09:31:00;;;;;;;;;;;;;;;9.90;nan;102039.03;5062566;28;19920;-31
2022/12/05 09:33:26;;;;;;;;;;;;;;;9.88;nan;102037.59;5063270;28;20714;-31
2022/12/05 09:35:51;;;;;;;;;;;;;;;9.90;nan;102030.19;5062978;28;19956;-31
2022/12/05 09:38:17;;;;;;;;;;;;;;;9.87;nan;102018.00;5062353;28;19925;-31
2022/12/05 09:40:42;;;;;;;;;;;;;;;9.86;nan;102024.41;5063927;28;19968;-31
2022/12/05 09:43:14;;;;;;;;;;;;;;;9.86;nan;102023.59;5062260;28;19924;-31
2022/12/05 09:45:47;;;;;;;;;;;;;;;9.89;nan;102024.00;5063233;28;19931;-31
2022/12/05 09:48:18;;;;;;;;;;;;;;;9.90;nan;102020.28;5061457;28;19939;-31
2022/12/05 09:50:44;;;;;;;;;;;;;;;9.92;nan;102018.22;5062161;28;19917;-31
2022/12/05 09:53:12;;;;;;;;;;;;;;;9.95;nan;102011.63;5063440;28;19970;-31
2022/12/05 09:55:43;;;;;;;;;;;;;;;10.00;nan;102015.28;5064355;28;19952;-31
2022/12/05 09:58:25;;;;;;;;;;;;;;;10.00;nan;102009.94;5056724;28;19924;-31
2022/12/05 10:00:53;;;;;;;;;;;;;;;10.03;nan;102007.88;5062529;28;19927;-31
2022/12/05 10:03:29;;;;;;;;;;;;;;;10.04;nan;102014.84;5061499;28;19923;-31
2022/12/05 10:05:54;;;;;;;;;;;;;;;10.05;nan;102013.81;5061498;28;19920;-31
2022/12/05 10:08:25;;;;;;;;;;;;;;;10.05;nan;102011.97;5062778;28;19969;-31
2022/12/05 10:11:23;;;;;;;;;;;;;;;10.04;nan;102004.97;5063216;28;19959;-31
2022/12/05 10:14:11;;;;;;;;;;;;;;;10.03;nan;102011.38;5023335;28;19916;-31
2022/12/05 10:16:45;;;;;;;;;;;;;;;10.05;nan;102011.16;5026246;28;20023;-31
2022/12/05 10:19:17;;;;;;;;;;;;;;;10.07;nan;102003.75;5062822;28;20019;-31
2022/12/05 10:22:03;;;;;;;;;;;;;;;10.06;nan;102007.47;5061046;28;19916;-31
2022/12/05 10:24:32;;;;;;;;;;;;;;;10.06;nan;102007.47;5059980;28;19920;-31
2022/12/05 10:27:05;;;;;;;;;;;;;;;10.02;nan;102014.25;5061072;28;19929;-31
2022/12/05 10:29:36;;;;;;;;;;;;;;;10.02;nan;102016.94;5062988;28;19978;-31
2022/12/05 10:32:14;;;;;;;;;;;;;;;10.03;nan;102013.22;5077650;22;19990;-32
2022/12/05 10:34:40;;;;;;;;;;;;;;;10.02;nan;102008.91;5049727;28;19952;-31
2022/12/05 10:37:22;;;;;;;;;;;;;;;10.03;nan;102010.53;5046951;28;20398;-31
2022/12/05 10:39:49;;;;;;;;;;;;;;;10.06;nan;102004.78;5050013;28;19929;-31
2022/12/05 10:42:24;;;;;;;;;;;;;;;10.09;nan;102007.03;5049998;28;19929;-31
2022/12/05 10:44:54;;;;;;;;;;;;;;;10.08;nan;102005.38;5049857;28;19932;-31
2022/12/05 10:47:19;;;;;;;;;;;;;;;10.09;nan;102007.03;5049634;28;19958;-32
2022/12/05 10:49:46;;;;;;;;;;;;;;;10.10;nan;102004.13;5050697;28;20579;-31
2022/12/05 10:52:12;;;;;;;;;;;;;;;10.10;nan;102003.31;5049023;28;20346;-31
2022/12/05 10:54:43;;;;;;;;;;;;;;;10.01;nan;102005.41;5049080;28;19998;-31
2022/12/05 10:57:29;;;;;;;;;;;;;;;9.97;nan;102010.38;5048858;28;19921;-31
2022/12/05 10:59:55;;;;;;;;;;;;;;;9.96;nan;101999.88;5047708;28;20172;-31
2022/12/05 11:02:25;;;;;;;;;;;;;;;9.95;nan;102008.94;5049146;28;20344;-31
2022/12/05 11:04:51;;;;;;;;;;;;;;;9.99;nan;102000.25;5049092;28;19923;-31
2022/12/05 11:07:28;;;;;;;;;;;;;;;10.03;nan;102011.38;5049598;28;19917;-31
2022/12/05 11:09:53;;;;;;;;;;;;;;;10.05;nan;101995.06;5048917;28;19962;-31
2022/12/05 11:12:20;;;;;;;;;;;;;;;10.05;nan;101997.75;5048893;28;19921;-31
2022/12/05 11:14:52;;;;;;;;;;;;;;;10.06;nan;101992.22;5048500;28;19931;-32
2022/12/05 11:17:26;;;;;;;;;;;;;;;10.05;nan;101990.53;5048453;28;19921;-31
2022/12/05 11:19:51;;;;;;;;;;;;;;;10.04;nan;101985.41;5043799;28;19927;-31
2022/12/05 11:22:16;;;;;;;;;;;;;;;10.05;nan;101984.38;5049464;28;19921;-31
2022/12/05 11:24:42;;;;;;;;;;;;;;;10.04;nan;101978.19;5048194;28;19917;-31
2022/12/05 11:27:16;;;;;;;;;;;;;;;10.06;nan;101976.16;5048420;28;19924;-31
2022/12/05 11:29:43;;;;;;;;;;;;;;;10.05;nan;101968.31;5048386;28;19952;-31
2022/12/05 11:32:20;;;;;;;;;;;;;;;10.01;nan;101962.56;5048214;28;19920;-31
2022/12/05 11:34:48;;;;;;;;;;;;;;;10.02;nan;101960.69;5048110;28;20325;-31
2022/12/05 11:37:19;;;;;;;;;;;;;;;10.05;nan;101961.09;5049088;28;19923;-31
2022/12/05 11:39:44;;;;;;;;;;;;;;;10.04;nan;101956.78;5048005;28;19928;-31
2022/12/05 11:42:10;;;;;;;;;;;;;;;10.06;nan;101953.91;5048935;28;19971;-31
2022/12/05 11:44:54;;;;;;;;;;;;;;;10.07;nan;101955.53;5048484;28;19917;-31
2022/12/05 11:47:19;;;;;;;;;;;;;;;10.07;nan;101955.53;5048728;28;20007;-31
2022/12/05 11:50:09;;;;;;;;;;;;;;;10.08;nan;101951.84;5048054;28;20016;-31
2022/12/05 11:52:34;;;;;;;;;;;;;;;10.08;nan;101949.97;5047938;28;19956;-31
2022/12/05 11:54:59;;;;;;;;;;;;;;;10.10;nan;101945.22;5048623;28;20426;-31
2022/12/05 11:57:31;;;;;;;;;;;;;;;10.08;nan;101936.59;5047419;28;19920;-31
2022/12/05 12:00:18;;;;;;;;;;;;;;;10.11;nan;101936.16;5046655;28;19968;-31
2022/12/05 12:02:53;;;;;;;;;;;;;;;10.13;nan;101934.06;5048460;28;20099;-31
2022/12/05 12:05:37;;;;;;;;;;;;;;;10.14;nan;101932.22;5049215;28;20120;-31
2022/12/05 12:08:10;;;;;;;;;;;;;;;10.13;nan;101934.06;5048119;28;19920;-31
2022/12/05 12:10:40;;;;;;;;;;;;;;;10.13;nan;101927.91;5050293;28;19924;-31
2022/12/05 12:13:41;;;;;;;;;;;;;;;10.13;nan;101928.72;5047988;28;19925;-31
2022/12/05 12:16:17;;;;;;;;;;;;;;;10.14;nan;101929.53;4989215;28;20095;-31
2022/12/05 12:18:58;;;;;;;;;;;;;;;10.17;nan;101929.09;5038225;28;19917;-32
2022/12/05 12:21:32;;;;;;;;;;;;;;;10.16;nan;101932.81;5048350;28;19924;-31
2022/12/05 12:24:07;;;;;;;;;;;;;;;10.13;nan;101926.03;5045873;28;20375;-31
2022/12/05 12:26:35;;;;;;;;;;;;;;;10.14;nan;101926.84;5049844;28;19916;-31
2022/12/05 12:29:07;;;;;;;;;;;;;;;10.08;nan;101920.50;5048548;28;19921;-31
2022/12/05 12:31:41;;;;;;;;;;;;;;;10.06;nan;101927.13;5051799;28;19929;-32
2022/12/05 12:34:25;;;;;;;;;;;;;;;10.08;nan;101925.88;5048553;28;20352;-32
2022/12/05 12:37:09;;;;;;;;;;;;;;;10.10;nan;101923.78;5049380;28;19958;-31
2022/12/05 12:40:01;;;;;;;;;;;;;;;10.10;nan;101922.97;5051320;28;19925;-31
2022/12/05 12:42:44;;;;;;;;;;;;;;;10.12;nan;101926.25;5049339;28;20058;-31
2022/12/05 12:45:28;;;;;;;;;;;;;;;10.14;nan;101925.00;5046400;28;20300;-32
2022/12/05 12:47:56;;;;;;;;;;;;;;;10.18;nan;101920.03;5047518;28;19990;-32
2022/12/05 12:50:22;;;;;;;;;;;;;;;10.17;nan;101913.84;5048874;28;19936;-31
2022/12/05 12:53:04;;;;;;;;;;;;;;;10.19;nan;101911.78;5051073;28;20288;-31
2022/12/05 12:55:31;;;;;;;;;;;;;;;10.21;nan;101906.22;5052246;28;20012;-31
2022/12/05 12:58:05;;;;;;;;;;;;;;;10.21;nan;101912.41;5049767;28;19959;-31
2022/12/05 13:00:49;;;;;;;;;;;;;;;10.20;nan;101913.41;5048172;28;19920;-31
2022/12/05 13:03:30;;;;;;;;;;;;;;;10.19;nan;101913.63;5050002;28;19924;-31
2022/12/05 13:06:02;;;;;;;;;;;;;;;10.23;nan;101913.03;5048760;28;20565;-32
2022/12/05 13:08:28;;;;;;;;;;;;;;;10.22;nan;101916.72;5045497;28;19934;-31
2022/12/05 13:10:54;;;;;;;;;;;;;;;10.24;nan;101913.84;5047561;28;19924;-31
2022/12/05 13:13:22;;;;;;;;;;;;;;;10.24;nan;101909.31;5052732;28;19980;-31
2022/12/05 13:15:53;;;;;;;;;;;;;;;10.24;nan;101914.66;5051110;28;19931;-31
2022/12/05 13:18:24;;;;;;;;;;;;;;;10.25;nan;101912.81;5051302;28;19920;-32